USSSUSRR

Guest
Details From USSS - Koltsovo
To USRR - Surgut
Flight Number -
Tags Generated
Created
Modified
Stats Distance 476 nm / 882 km
Max Altitude 0 ft / 0 m
Waypoints 4
Social Downloads 3
Likes 0
Share VATSIM

Download

Looking for another format? Having issues loading an existing format? Contact us
Advertisement - Login to hide

Notes

Generated

Route

USSS MOTEK GK USRR

ID Type Via Altitude Latitude Longitude Leg Dist Tot Dist Heading (true) Name
O USSS APT - 0 ft / 0 m 56.74481˚ 60.78140˚ - 0 nm - -
MOTEK FIX - 0 ft / 0 m 59.38333˚ 67.25000˚ 259 nm 259 nm 50° / 55° -
GK NDB - 0 ft / 0 m 61.34333˚ 73.30000˚ 214 nm 473 nm 54° / 59° SURGUT NDB
O USRR APT - 0 ft / 0 m 61.34364˚ 73.37581˚ 2 nm 476 nm 89° / 90° -

Altitude Profile

Advertisement - Login to hide

Weather


0- 5 10 15 20 25 30 35+ Temperature / ° C

Clouds and Precipitation
Forecast for 2018-05-24 00:00 UTC. Updated 4 hours ago

Ground ~20,000 ft ~40,000 ft Winds

USSS

Details ICAO USSS (SVX)
Name KOLTSOVO
Region Russia
Timezone Asia/Yekaterinburg (UTC+5.0)
Stats Elevation 764 ft / 233 m (AMSL)
Location 56.743108° 60.802727°
Runways 2
Magnetic Variation 14.900° E

METAR

USSS 240300Z 25007MPS CAVOK 20/10 Q1013 R26R/010060 TEMPO 25012MPS RMK QFE739/0985

Decode

TAF

TAF TAF AMD USSS 240247Z 2403/2503 26008MPS 9999 SCT015 SCT020CB TEMPO 2403/2405 25012MPS TEMPO 2405/2415 27019MPS -TSRA BECMG 2415/2417 34004MPS

Decode

Departure Runways

ID Width Length Bearing (true) Bearing (mag) Surface Threshold Offset Overrun Length
08L 148 ft / 45 m 8,172 ft / 2,491 m 90.13° 75.23° Asphalt 0 ft / 0 m 230 ft / 70 m
08R 174 ft / 53 m 9,861 ft / 3,006 m 94.09° 79.19° Concrete 246 ft / 75 m 165 ft / 50 m
26L 174 ft / 53 m 9,861 ft / 3,006 m 274.14° 259.24° Concrete 1,066 ft / 325 m 165 ft / 50 m
26R 148 ft / 45 m 8,172 ft / 2,491 m 270.17° 255.27° Asphalt 0 ft / 0 m 220 ft / 67 m

USRR

Details ICAO USRR (SGC)
Name SURGUT
Region Russia
Timezone Asia/Yekaterinburg (UTC+5.0)
Stats Elevation 200 ft / 61 m (AMSL)
Location 61.343693° 73.401842°
Runways 1
Magnetic Variation 17.121° E

METAR

USRR 240300Z 18004MPS 140V220 CAVOK 06/03 Q1005 R07/290060 NOSIG RMK QFE749

Decode

TAF

TAF USRR 240155Z 2403/2503 20007G14MPS 4000 -SHRA BKN020CB TEMPO 2403/2412 3100 -SHRA BKN011 BKN020CB BECMG 2409/2411 32008G15MPS

Decode

Destination Runways

ID Width Length Bearing (true) Bearing (mag) Surface Threshold Offset Overrun Length
07 148 ft / 45 m 9,112 ft / 2,778 m 89.72° 72.60° Asphalt 0 ft / 0 m 165 ft / 50 m
25 148 ft / 45 m 9,112 ft / 2,778 m 269.76° 252.64° Asphalt 0 ft / 0 m 165 ft / 50 m

Popular Alternatives